sensor_id;sensor_type;location;lat;lon;timestamp;temperature;humidity
8820;DHT22;4446;50.876;4.736;2022-07-29T00:01:34;18.10;99.90
8820;DHT22;4446;50.876;4.736;2022-07-29T00:04:01;18.10;99.90
8820;DHT22;4446;50.876;4.736;2022-07-29T00:06:28;18.00;99.90
8820;DHT22;4446;50.876;4.736;2022-07-29T00:08:55;18.10;99.90
8820;DHT22;4446;50.876;4.736;2022-07-29T00:11:22;18.00;99.90
8820;DHT22;4446;50.876;4.736;2022-07-29T00:13:50;18.00;99.90
8820;DHT22;4446;50.876;4.736;2022-07-29T00:16:17;17.90;99.90
8820;DHT22;4446;50.876;4.736;2022-07-29T00:18:44;17.90;99.90
8820;DHT22;4446;50.876;4.736;2022-07-29T00:21:12;17.90;99.90
8820;DHT22;4446;50.876;4.736;2022-07-29T00:23:39;17.80;99.90
8820;DHT22;4446;50.876;4.736;2022-07-29T00:26:06;17.90;99.90
8820;DHT22;4446;50.876;4.736;2022-07-29T00:28:33;17.90;99.90
8820;DHT22;4446;50.876;4.736;2022-07-29T00:31:01;17.80;99.90
8820;DHT22;4446;50.876;4.736;2022-07-29T00:33:28;17.80;99.90
8820;DHT22;4446;50.876;4.736;2022-07-29T00:35:55;17.80;99.90
8820;DHT22;4446;50.876;4.736;2022-07-29T00:38:21;17.80;99.90
8820;DHT22;4446;50.876;4.736;2022-07-29T00:40:48;17.80;99.90
8820;DHT22;4446;50.876;4.736;2022-07-29T00:43:17;17.80;99.90
8820;DHT22;4446;50.876;4.736;2022-07-29T00:45:44;17.80;99.90
8820;DHT22;4446;50.876;4.736;2022-07-29T00:48:12;17.80;99.90
8820;DHT22;4446;50.876;4.736;2022-07-29T00:50:39;17.70;99.90
8820;DHT22;4446;50.876;4.736;2022-07-29T00:53:07;17.70;99.90
8820;DHT22;4446;50.876;4.736;2022-07-29T00:55:35;17.60;99.90
8820;DHT22;4446;50.876;4.736;2022-07-29T00:58:02;17.60;99.90
8820;DHT22;4446;50.876;4.736;2022-07-29T01:00:30;17.60;99.90
8820;DHT22;4446;50.876;4.736;2022-07-29T01:02:57;17.50;99.90
8820;DHT22;4446;50.876;4.736;2022-07-29T01:05:27;17.40;99.90
8820;DHT22;4446;50.876;4.736;2022-07-29T01:07:54;17.40;99.90
8820;DHT22;4446;50.876;4.736;2022-07-29T01:10:24;17.30;99.90
8820;DHT22;4446;50.876;4.736;2022-07-29T01:12:52;17.20;99.90
8820;DHT22;4446;50.876;4.736;2022-07-29T01:15:21;17.20;99.90
8820;DHT22;4446;50.876;4.736;2022-07-29T01:17:52;17.30;99.90
8820;DHT22;4446;50.876;4.736;2022-07-29T01:20:30;17.20;99.90
8820;DHT22;4446;50.876;4.736;2022-07-29T01:26:17;17.10;99.90
8820;DHT22;4446;50.876;4.736;2022-07-29T01:28:59;17.20;99.90
8820;DHT22;4446;50.876;4.736;2022-07-29T01:31:33;17.20;99.90
8820;DHT22;4446;50.876;4.736;2022-07-29T01:34:05;17.20;99.90
8820;DHT22;4446;50.876;4.736;2022-07-29T01:36:36;17.20;99.90
8820;DHT22;4446;50.876;4.736;2022-07-29T01:39:11;17.10;99.90
8820;DHT22;4446;50.876;4.736;2022-07-29T01:41:48;17.00;99.90
8820;DHT22;4446;50.876;4.736;2022-07-29T01:44:22;16.90;99.90
8820;DHT22;4446;50.876;4.736;2022-07-29T01:46:55;16.80;99.90
8820;DHT22;4446;50.876;4.736;2022-07-29T01:49:28;16.60;99.90
8820;DHT22;4446;50.876;4.736;2022-07-29T01:51:58;16.50;99.90
8820;DHT22;4446;50.876;4.736;2022-07-29T01:54:32;16.40;99.90
8820;DHT22;4446;50.876;4.736;2022-07-29T01:57:02;16.30;99.90
8820;DHT22;4446;50.876;4.736;2022-07-29T01:59:34;16.20;99.90
8820;DHT22;4446;50.876;4.736;2022-07-29T02:02:01;16.10;99.90
8820;DHT22;4446;50.876;4.736;2022-07-29T02:04:30;16.10;99.90
8820;DHT22;4446;50.876;4.736;2022-07-29T02:07:01;16.10;99.90
8820;DHT22;4446;50.876;4.736;2022-07-29T02:09:30;16.00;99.90
8820;DHT22;4446;50.876;4.736;2022-07-29T02:11:59;16.00;99.90
8820;DHT22;4446;50.876;4.736;2022-07-29T02:14:31;16.00;99.90
8820;DHT22;4446;50.876;4.736;2022-07-29T02:17:00;16.00;99.90
8820;DHT22;4446;50.876;4.736;2022-07-29T02:19:30;16.10;99.90
8820;DHT22;4446;50.876;4.736;2022-07-29T02:21:59;16.10;99.90
8820;DHT22;4446;50.876;4.736;2022-07-29T02:24:26;16.10;99.90
8820;DHT22;4446;50.876;4.736;2022-07-29T02:26:55;16.20;99.90
8820;DHT22;4446;50.876;4.736;2022-07-29T02:29:25;16.10;99.90
8820;DHT22;4446;50.876;4.736;2022-07-29T02:31:55;16.10;99.90
8820;DHT22;4446;50.876;4.736;2022-07-29T02:34:24;16.20;99.90
8820;DHT22;4446;50.876;4.736;2022-07-29T02:36:52;16.20;99.90
8820;DHT22;4446;50.876;4.736;2022-07-29T02:39:21;16.20;99.90
8820;DHT22;4446;50.876;4.736;2022-07-29T02:41:52;16.20;99.90
8820;DHT22;4446;50.876;4.736;2022-07-29T02:44:24;16.20;99.90
8820;DHT22;4446;50.876;4.736;2022-07-29T02:46:58;16.20;99.90
8820;DHT22;4446;50.876;4.736;2022-07-29T02:49:34;16.10;99.90
8820;DHT22;4446;50.876;4.736;2022-07-29T02:52:03;16.00;99.90
8820;DHT22;4446;50.876;4.736;2022-07-29T02:54:36;16.00;99.90
8820;DHT22;4446;50.876;4.736;2022-07-29T02:57:11;15.90;99.90
8820;DHT22;4446;50.876;4.736;2022-07-29T02:59:42;15.90;99.90
8820;DHT22;4446;50.876;4.736;2022-07-29T03:02:14;15.80;99.90
8820;DHT22;4446;50.876;4.736;2022-07-29T03:04:42;15.70;99.90
8820;DHT22;4446;50.876;4.736;2022-07-29T03:07:11;15.70;99.90
8820;DHT22;4446;50.876;4.736;2022-07-29T03:09:41;15.60;99.90
8820;DHT22;4446;50.876;4.736;2022-07-29T03:12:08;15.50;99.90
8820;DHT22;4446;50.876;4.736;2022-07-29T03:14:36;15.40;99.90
8820;DHT22;4446;50.876;4.736;2022-07-29T03:17:03;15.40;99.90
8820;DHT22;4446;50.876;4.736;2022-07-29T03:19:33;15.30;99.90
8820;DHT22;4446;50.876;4.736;2022-07-29T03:22:00;15.40;99.90
8820;DHT22;4446;50.876;4.736;2022-07-29T03:24:29;15.40;99.90
8820;DHT22;4446;50.876;4.736;2022-07-29T03:26:57;15.40;99.90
8820;DHT22;4446;50.876;4.736;2022-07-29T03:29:24;15.40;99.90
8820;DHT22;4446;50.876;4.736;2022-07-29T03:31:52;15.30;99.90
8820;DHT22;4446;50.876;4.736;2022-07-29T03:34:19;15.30;99.90
8820;DHT22;4446;50.876;4.736;2022-07-29T03:36:48;15.20;99.90
8820;DHT22;4446;50.876;4.736;2022-07-29T03:39:21;15.10;99.90
8820;DHT22;4446;50.876;4.736;2022-07-29T03:41:53;15.00;99.90
8820;DHT22;4446;50.876;4.736;2022-07-29T03:44:22;14.90;99.90
8820;DHT22;4446;50.876;4.736;2022-07-29T03:46:50;14.80;99.90
8820;DHT22;4446;50.876;4.736;2022-07-29T03:49:20;14.70;99.90
8820;DHT22;4446;50.876;4.736;2022-07-29T03:51:49;14.70;99.90
8820;DHT22;4446;50.876;4.736;2022-07-29T03:54:17;14.60;99.90
8820;DHT22;4446;50.876;4.736;2022-07-29T03:56:46;14.50;99.90
8820;DHT22;4446;50.876;4.736;2022-07-29T03:59:17;14.40;99.90
8820;DHT22;4446;50.876;4.736;2022-07-29T04:01:46;14.40;99.90
8820;DHT22;4446;50.876;4.736;2022-07-29T04:04:13;14.30;99.90
8820;DHT22;4446;50.876;4.736;2022-07-29T04:06:41;14.40;99.90
8820;DHT22;4446;50.876;4.736;2022-07-29T04:09:10;14.40;99.90
8820;DHT22;4446;50.876;4.736;2022-07-29T04:11:39;14.40;99.90
8820;DHT22;4446;50.876;4.736;2022-07-29T04:14:06;14.30;99.90
8820;DHT22;4446;50.876;4.736;2022-07-29T04:16:33;14.20;99.90
8820;DHT22;4446;50.876;4.736;2022-07-29T04:19:00;14.10;99.90
8820;DHT22;4446;50.876;4.736;2022-07-29T04:21:27;14.10;99.90
8820;DHT22;4446;50.876;4.736;2022-07-29T04:23:54;14.10;99.90
8820;DHT22;4446;50.876;4.736;2022-07-29T04:26:23;14.10;99.90
8820;DHT22;4446;50.876;4.736;2022-07-29T04:28:50;14.10;99.90
8820;DHT22;4446;50.876;4.736;2022-07-29T04:31:17;14.00;99.90
8820;DHT22;4446;50.876;4.736;2022-07-29T04:33:44;14.00;99.90
8820;DHT22;4446;50.876;4.736;2022-07-29T04:36:11;14.10;99.90
8820;DHT22;4446;50.876;4.736;2022-07-29T04:38:38;14.00;99.90
8820;DHT22;4446;50.876;4.736;2022-07-29T04:41:06;14.10;99.90
8820;DHT22;4446;50.876;4.736;2022-07-29T04:43:35;14.00;99.90
8820;DHT22;4446;50.876;4.736;2022-07-29T04:46:03;14.00;99.90
8820;DHT22;4446;50.876;4.736;2022-07-29T04:48:30;14.00;99.90
8820;DHT22;4446;50.876;4.736;2022-07-29T04:50:57;14.00;99.90
8820;DHT22;4446;50.876;4.736;2022-07-29T04:53:24;14.10;99.90
8820;DHT22;4446;50.876;4.736;2022-07-29T04:55:51;14.10;99.90
8820;DHT22;4446;50.876;4.736;2022-07-29T04:58:18;14.10;99.90
8820;DHT22;4446;50.876;4.736;2022-07-29T05:00:46;14.10;99.90
8820;DHT22;4446;50.876;4.736;2022-07-29T05:03:13;14.10;99.90
8820;DHT22;4446;50.876;4.736;2022-07-29T05:05:40;14.20;99.90
8820;DHT22;4446;50.876;4.736;2022-07-29T05:08:07;14.30;99.90
8820;DHT22;4446;50.876;4.736;2022-07-29T05:10:34;14.40;99.90
8820;DHT22;4446;50.876;4.736;2022-07-29T05:13:04;14.40;99.90
8820;DHT22;4446;50.876;4.736;2022-07-29T05:15:32;14.50;99.90
8820;DHT22;4446;50.876;4.736;2022-07-29T05:18:00;14.60;99.90
8820;DHT22;4446;50.876;4.736;2022-07-29T05:20:28;14.60;99.90
8820;DHT22;4446;50.876;4.736;2022-07-29T05:22:55;14.70;99.90
8820;DHT22;4446;50.876;4.736;2022-07-29T05:25:23;14.80;99.90
8820;DHT22;4446;50.876;4.736;2022-07-29T05:27:51;14.90;99.90
8820;DHT22;4446;50.876;4.736;2022-07-29T05:30:18;15.00;99.90
8820;DHT22;4446;50.876;4.736;2022-07-29T05:32:45;15.20;99.90
8820;DHT22;4446;50.876;4.736;2022-07-29T05:35:15;15.40;99.90
8820;DHT22;4446;50.876;4.736;2022-07-29T05:37:42;15.50;99.90
8820;DHT22;4446;50.876;4.736;2022-07-29T05:40:10;15.70;99.90
8820;DHT22;4446;50.876;4.736;2022-07-29T05:42:37;15.90;99.90
8820;DHT22;4446;50.876;4.736;2022-07-29T05:45:05;16.10;99.90
8820;DHT22;4446;50.876;4.736;2022-07-29T05:47:32;16.20;99.90
8820;DHT22;4446;50.876;4.736;2022-07-29T05:49:59;16.30;99.90
8820;DHT22;4446;50.876;4.736;2022-07-29T05:52:27;16.30;99.90
8820;DHT22;4446;50.876;4.736;2022-07-29T05:54:54;16.40;99.90
8820;DHT22;4446;50.876;4.736;2022-07-29T05:57:23;16.50;99.90
8820;DHT22;4446;50.876;4.736;2022-07-29T05:59:51;16.60;99.90
8820;DHT22;4446;50.876;4.736;2022-07-29T06:02:18;16.70;99.90
8820;DHT22;4446;50.876;4.736;2022-07-29T06:04:45;16.80;99.90
8820;DHT22;4446;50.876;4.736;2022-07-29T06:07:12;17.00;99.90
8820;DHT22;4446;50.876;4.736;2022-07-29T06:09:40;17.20;99.90
8820;DHT22;4446;50.876;4.736;2022-07-29T06:12:08;17.30;99.90
8820;DHT22;4446;50.876;4.736;2022-07-29T06:14:35;17.40;99.90
8820;DHT22;4446;50.876;4.736;2022-07-29T06:17:03;17.50;99.90
8820;DHT22;4446;50.876;4.736;2022-07-29T06:19:31;17.60;99.90
8820;DHT22;4446;50.876;4.736;2022-07-29T06:22:00;17.50;99.90
8820;DHT22;4446;50.876;4.736;2022-07-29T06:24:28;17.50;99.90
8820;DHT22;4446;50.876;4.736;2022-07-29T06:26:56;17.40;99.90
8820;DHT22;4446;50.876;4.736;2022-07-29T06:29:23;17.40;99.90
8820;DHT22;4446;50.876;4.736;2022-07-29T06:31:50;17.30;99.90
8820;DHT22;4446;50.876;4.736;2022-07-29T06:34:18;17.30;99.90
8820;DHT22;4446;50.876;4.736;2022-07-29T06:36:45;17.40;99.90
8820;DHT22;4446;50.876;4.736;2022-07-29T06:39:12;17.40;99.90
8820;DHT22;4446;50.876;4.736;2022-07-29T06:41:39;17.50;99.90
8820;DHT22;4446;50.876;4.736;2022-07-29T06:44:07;17.50;99.90
8820;DHT22;4446;50.876;4.736;2022-07-29T06:46:34;17.60;99.90
8820;DHT22;4446;50.876;4.736;2022-07-29T06:49:02;17.60;99.90
8820;DHT22;4446;50.876;4.736;2022-07-29T06:51:29;17.60;99.90
8820;DHT22;4446;50.876;4.736;2022-07-29T06:53:56;17.60;99.90
8820;DHT22;4446;50.876;4.736;2022-07-29T06:56:24;17.70;99.90
8820;DHT22;4446;50.876;4.736;2022-07-29T06:58:51;17.70;99.90
8820;DHT22;4446;50.876;4.736;2022-07-29T07:01:20;17.80;99.90
8820;DHT22;4446;50.876;4.736;2022-07-29T07:03:47;17.80;99.90
8820;DHT22;4446;50.876;4.736;2022-07-29T07:06:15;17.90;99.90
8820;DHT22;4446;50.876;4.736;2022-07-29T07:08:42;17.90;99.90
8820;DHT22;4446;50.876;4.736;2022-07-29T07:11:09;18.00;99.90
8820;DHT22;4446;50.876;4.736;2022-07-29T07:13:36;18.10;99.90
8820;DHT22;4446;50.876;4.736;2022-07-29T07:16:04;18.20;99.90
8820;DHT22;4446;50.876;4.736;2022-07-29T07:18:32;18.30;99.90
8820;DHT22;4446;50.876;4.736;2022-07-29T07:21:00;18.30;99.90
8820;DHT22;4446;50.876;4.736;2022-07-29T07:23:27;18.40;99.90
8820;DHT22;4446;50.876;4.736;2022-07-29T07:25:54;18.50;99.90
8820;DHT22;4446;50.876;4.736;2022-07-29T07:28:21;18.50;99.90
8820;DHT22;4446;50.876;4.736;2022-07-29T07:30:48;18.60;99.90
8820;DHT22;4446;50.876;4.736;2022-07-29T07:33:15;18.70;99.90
8820;DHT22;4446;50.876;4.736;2022-07-29T07:35:43;18.80;99.90
8820;DHT22;4446;50.876;4.736;2022-07-29T07:38:10;18.80;99.90
8820;DHT22;4446;50.876;4.736;2022-07-29T07:40:37;18.90;99.90
8820;DHT22;4446;50.876;4.736;2022-07-29T07:43:04;19.00;99.90
8820;DHT22;4446;50.876;4.736;2022-07-29T07:45:32;19.20;99.90
8820;DHT22;4446;50.876;4.736;2022-07-29T07:47:59;19.20;99.90
8820;DHT22;4446;50.876;4.736;2022-07-29T07:50:26;19.30;99.90
8820;DHT22;4446;50.876;4.736;2022-07-29T07:52:55;19.40;99.90
8820;DHT22;4446;50.876;4.736;2022-07-29T07:55:24;19.40;99.90
8820;DHT22;4446;50.876;4.736;2022-07-29T07:57:52;19.50;99.90
8820;DHT22;4446;50.876;4.736;2022-07-29T08:00:20;19.70;99.90
8820;DHT22;4446;50.876;4.736;2022-07-29T08:02:47;19.70;99.90
8820;DHT22;4446;50.876;4.736;2022-07-29T08:05:15;19.80;99.90
8820;DHT22;4446;50.876;4.736;2022-07-29T08:07:44;19.90;99.90
8820;DHT22;4446;50.876;4.736;2022-07-29T08:10:13;20.00;99.90
8820;DHT22;4446;50.876;4.736;2022-07-29T08:12:40;20.10;99.90
8820;DHT22;4446;50.876;4.736;2022-07-29T08:15:08;20.20;99.90
8820;DHT22;4446;50.876;4.736;2022-07-29T08:17:36;20.30;99.90
8820;DHT22;4446;50.876;4.736;2022-07-29T08:20:04;20.30;99.90
8820;DHT22;4446;50.876;4.736;2022-07-29T08:22:31;20.40;99.90
8820;DHT22;4446;50.876;4.736;2022-07-29T08:24:58;20.30;99.90
8820;DHT22;4446;50.876;4.736;2022-07-29T08:27:26;20.40;99.90
8820;DHT22;4446;50.876;4.736;2022-07-29T08:29:56;20.40;99.90
8820;DHT22;4446;50.876;4.736;2022-07-29T08:32:23;20.50;99.90
8820;DHT22;4446;50.876;4.736;2022-07-29T08:34:50;20.60;99.90
8820;DHT22;4446;50.876;4.736;2022-07-29T08:37:17;20.70;99.90
8820;DHT22;4446;50.876;4.736;2022-07-29T08:39:44;20.90;99.90
8820;DHT22;4446;50.876;4.736;2022-07-29T08:42:11;20.90;99.90
8820;DHT22;4446;50.876;4.736;2022-07-29T08:44:40;21.00;99.90
8820;DHT22;4446;50.876;4.736;2022-07-29T08:47:07;21.10;99.90
8820;DHT22;4446;50.876;4.736;2022-07-29T08:49:35;21.20;99.90
8820;DHT22;4446;50.876;4.736;2022-07-29T08:52:04;21.40;99.90
8820;DHT22;4446;50.876;4.736;2022-07-29T08:54:31;21.40;99.90
8820;DHT22;4446;50.876;4.736;2022-07-29T08:56:59;21.50;99.90
8820;DHT22;4446;50.876;4.736;2022-07-29T08:59:27;21.60;99.90
8820;DHT22;4446;50.876;4.736;2022-07-29T09:01:58;21.60;99.90
8820;DHT22;4446;50.876;4.736;2022-07-29T09:04:30;21.60;99.90
8820;DHT22;4446;50.876;4.736;2022-07-29T09:07:01;21.60;99.90
8820;DHT22;4446;50.876;4.736;2022-07-29T09:09:30;21.60;99.90
8820;DHT22;4446;50.876;4.736;2022-07-29T09:11:59;21.80;99.90
8820;DHT22;4446;50.876;4.736;2022-07-29T09:14:26;21.90;99.90
8820;DHT22;4446;50.876;4.736;2022-07-29T09:16:54;22.00;99.90
8820;DHT22;4446;50.876;4.736;2022-07-29T09:19:26;22.00;99.90
8820;DHT22;4446;50.876;4.736;2022-07-29T09:21:53;22.20;99.90
8820;DHT22;4446;50.876;4.736;2022-07-29T09:24:38;22.30;99.90
8820;DHT22;4446;50.876;4.736;2022-07-29T09:27:20;22.30;99.90
8820;DHT22;4446;50.876;4.736;2022-07-29T09:29:55;22.40;99.90
8820;DHT22;4446;50.876;4.736;2022-07-29T09:32:22;22.50;99.90
8820;DHT22;4446;50.876;4.736;2022-07-29T09:34:51;22.60;99.90
8820;DHT22;4446;50.876;4.736;2022-07-29T09:37:28;22.60;99.90
8820;DHT22;4446;50.876;4.736;2022-07-29T09:39:55;22.70;99.90
8820;DHT22;4446;50.876;4.736;2022-07-29T09:42:28;22.80;99.90
8820;DHT22;4446;50.876;4.736;2022-07-29T09:44:58;22.80;99.90
8820;DHT22;4446;50.876;4.736;2022-07-29T09:47:40;22.90;99.90
8820;DHT22;4446;50.876;4.736;2022-07-29T09:50:09;23.10;99.90
8820;DHT22;4446;50.876;4.736;2022-07-29T09:52:45;23.10;99.90
8820;DHT22;4446;50.876;4.736;2022-07-29T09:55:13;23.20;99.90
8820;DHT22;4446;50.876;4.736;2022-07-29T09:57:40;23.40;99.90
8820;DHT22;4446;50.876;4.736;2022-07-29T10:00:08;23.40;99.90
8820;DHT22;4446;50.876;4.736;2022-07-29T10:02:38;23.60;99.90
8820;DHT22;4446;50.876;4.736;2022-07-29T10:05:15;23.70;99.90
8820;DHT22;4446;50.876;4.736;2022-07-29T10:07:44;23.80;99.90
8820;DHT22;4446;50.876;4.736;2022-07-29T10:10:19;23.80;99.90
8820;DHT22;4446;50.876;4.736;2022-07-29T10:12:54;23.90;99.90
8820;DHT22;4446;50.876;4.736;2022-07-29T10:15:22;24.00;99.90
8820;DHT22;4446;50.876;4.736;2022-07-29T10:17:50;24.00;99.90
8820;DHT22;4446;50.876;4.736;2022-07-29T10:20:20;24.00;99.90
8820;DHT22;4446;50.876;4.736;2022-07-29T10:22:47;24.10;99.90
8820;DHT22;4446;50.876;4.736;2022-07-29T10:25:16;24.30;99.90
8820;DHT22;4446;50.876;4.736;2022-07-29T10:27:44;24.30;99.90
8820;DHT22;4446;50.876;4.736;2022-07-29T10:30:12;24.30;99.90
8820;DHT22;4446;50.876;4.736;2022-07-29T10:32:58;24.40;99.90
8820;DHT22;4446;50.876;4.736;2022-07-29T10:38:40;24.50;99.90
8820;DHT22;4446;50.876;4.736;2022-07-29T10:41:21;24.60;99.90
8820;DHT22;4446;50.876;4.736;2022-07-29T10:43:58;24.60;99.90
8820;DHT22;4446;50.876;4.736;2022-07-29T10:46:27;24.70;99.90
8820;DHT22;4446;50.876;4.736;2022-07-29T10:49:12;24.60;99.90
8820;DHT22;4446;50.876;4.736;2022-07-29T10:52:07;24.70;99.90
8820;DHT22;4446;50.876;4.736;2022-07-29T10:54:41;24.90;99.90
8820;DHT22;4446;50.876;4.736;2022-07-29T10:57:15;25.00;99.90
8820;DHT22;4446;50.876;4.736;2022-07-29T10:59:43;25.00;99.90
8820;DHT22;4446;50.876;4.736;2022-07-29T11:02:43;25.20;99.90
8820;DHT22;4446;50.876;4.736;2022-07-29T11:05:11;25.40;99.90
8820;DHT22;4446;50.876;4.736;2022-07-29T11:08:16;25.40;99.90
8820;DHT22;4446;50.876;4.736;2022-07-29T11:10:29;25.40;99.90
8820;DHT22;4446;50.876;4.736;2022-07-29T11:12:56;25.50;99.90
8820;DHT22;4446;50.876;4.736;2022-07-29T11:15:23;25.50;99.90
8820;DHT22;4446;50.876;4.736;2022-07-29T11:18:07;25.60;99.90
8820;DHT22;4446;50.876;4.736;2022-07-29T11:20:36;25.70;99.90
8820;DHT22;4446;50.876;4.736;2022-07-29T11:23:24;25.60;99.90
8820;DHT22;4446;50.876;4.736;2022-07-29T11:26:18;25.70;99.90
8820;DHT22;4446;50.876;4.736;2022-07-29T11:28:59;25.80;99.90
8820;DHT22;4446;50.876;4.736;2022-07-29T11:31:36;25.80;99.90
8820;DHT22;4446;50.876;4.736;2022-07-29T11:34:21;25.90;99.90
8820;DHT22;4446;50.876;4.736;2022-07-29T11:37:20;26.00;99.90
8820;DHT22;4446;50.876;4.736;2022-07-29T11:40:13;26.10;99.90
8820;DHT22;4446;50.876;4.736;2022-07-29T11:42:44;26.20;99.90
8820;DHT22;4446;50.876;4.736;2022-07-29T11:45:14;26.30;99.90
8820;DHT22;4446;50.876;4.736;2022-07-29T11:47:47;26.40;99.90
8820;DHT22;4446;50.876;4.736;2022-07-29T11:50:16;26.60;99.90
8820;DHT22;4446;50.876;4.736;2022-07-29T11:52:46;26.50;99.90
8820;DHT22;4446;50.876;4.736;2022-07-29T11:55:16;26.50;99.90
8820;DHT22;4446;50.876;4.736;2022-07-29T11:57:50;26.10;99.90
8820;DHT22;4446;50.876;4.736;2022-07-29T12:00:23;25.90;99.90
8820;DHT22;4446;50.876;4.736;2022-07-29T12:02:51;25.60;99.90
8820;DHT22;4446;50.876;4.736;2022-07-29T12:05:18;25.50;99.90
8820;DHT22;4446;50.876;4.736;2022-07-29T12:07:46;25.50;99.90
8820;DHT22;4446;50.876;4.736;2022-07-29T12:10:14;25.60;99.90
8820;DHT22;4446;50.876;4.736;2022-07-29T12:12:41;25.80;99.90
8820;DHT22;4446;50.876;4.736;2022-07-29T12:15:17;26.10;99.90
8820;DHT22;4446;50.876;4.736;2022-07-29T12:17:47;26.30;99.90
8820;DHT22;4446;50.876;4.736;2022-07-29T12:20:25;26.50;99.90
8820;DHT22;4446;50.876;4.736;2022-07-29T12:22:52;27.10;99.90
8820;DHT22;4446;50.876;4.736;2022-07-29T12:25:21;27.40;99.90
8820;DHT22;4446;50.876;4.736;2022-07-29T12:27:58;27.60;99.90
8820;DHT22;4446;50.876;4.736;2022-07-29T12:30:37;28.10;99.90
8820;DHT22;4446;50.876;4.736;2022-07-29T12:33:13;27.90;99.90
8820;DHT22;4446;50.876;4.736;2022-07-29T12:35:42;28.20;99.90
8820;DHT22;4446;50.876;4.736;2022-07-29T12:38:10;28.30;99.90
8820;DHT22;4446;50.876;4.736;2022-07-29T12:40:38;28.30;99.90
8820;DHT22;4446;50.876;4.736;2022-07-29T12:43:11;28.30;99.90
8820;DHT22;4446;50.876;4.736;2022-07-29T12:45:42;28.50;99.90
8820;DHT22;4446;50.876;4.736;2022-07-29T12:48:10;28.80;99.90
8820;DHT22;4446;50.876;4.736;2022-07-29T12:50:52;29.10;99.90
8820;DHT22;4446;50.876;4.736;2022-07-29T12:53:20;28.90;99.90
8820;DHT22;4446;50.876;4.736;2022-07-29T12:55:48;28.70;99.90
8820;DHT22;4446;50.876;4.736;2022-07-29T12:58:31;28.50;99.90
8820;DHT22;4446;50.876;4.736;2022-07-29T13:01:08;28.70;99.90
8820;DHT22;4446;50.876;4.736;2022-07-29T13:03:48;28.70;99.90
8820;DHT22;4446;50.876;4.736;2022-07-29T13:06:34;29.00;99.80
8820;DHT22;4446;50.876;4.736;2022-07-29T13:09:06;29.10;99.80
8820;DHT22;4446;50.876;4.736;2022-07-29T13:11:35;28.80;99.80
8820;DHT22;4446;50.876;4.736;2022-07-29T13:14:03;28.50;99.90
8820;DHT22;4446;50.876;4.736;2022-07-29T13:16:32;28.40;99.90
8820;DHT22;4446;50.876;4.736;2022-07-29T13:19:08;28.80;99.80
8820;DHT22;4446;50.876;4.736;2022-07-29T13:21:37;28.80;99.50
8820;DHT22;4446;50.876;4.736;2022-07-29T13:24:06;28.90;99.60
8820;DHT22;4446;50.876;4.736;2022-07-29T13:26:34;28.90;99.10
8820;DHT22;4446;50.876;4.736;2022-07-29T13:29:02;28.80;99.00
8820;DHT22;4446;50.876;4.736;2022-07-29T13:31:29;29.20;98.90
8820;DHT22;4446;50.876;4.736;2022-07-29T13:33:58;29.80;98.50
8820;DHT22;4446;50.876;4.736;2022-07-29T13:36:25;30.60;97.90
8820;DHT22;4446;50.876;4.736;2022-07-29T13:38:52;31.00;95.80
8820;DHT22;4446;50.876;4.736;2022-07-29T13:41:19;31.40;95.80
8820;DHT22;4446;50.876;4.736;2022-07-29T13:43:46;32.00;95.50
8820;DHT22;4446;50.876;4.736;2022-07-29T13:46:13;31.60;94.70
8820;DHT22;4446;50.876;4.736;2022-07-29T13:48:40;31.00;94.70
8820;DHT22;4446;50.876;4.736;2022-07-29T13:51:09;30.40;95.50
8820;DHT22;4446;50.876;4.736;2022-07-29T13:53:36;30.60;95.40
8820;DHT22;4446;50.876;4.736;2022-07-29T13:56:03;30.90;95.30
8820;DHT22;4446;50.876;4.736;2022-07-29T13:58:31;30.90;94.80
8820;DHT22;4446;50.876;4.736;2022-07-29T14:00:59;30.20;95.20
8820;DHT22;4446;50.876;4.736;2022-07-29T14:03:26;29.90;95.70
8820;DHT22;4446;50.876;4.736;2022-07-29T14:05:53;29.80;95.30
8820;DHT22;4446;50.876;4.736;2022-07-29T14:08:23;29.40;95.50
8820;DHT22;4446;50.876;4.736;2022-07-29T14:10:50;29.60;95.60
8820;DHT22;4446;50.876;4.736;2022-07-29T14:13:17;29.60;95.90
8820;DHT22;4446;50.876;4.736;2022-07-29T14:15:44;29.60;95.20
8820;DHT22;4446;50.876;4.736;2022-07-29T14:18:11;29.60;95.80
8820;DHT22;4446;50.876;4.736;2022-07-29T14:20:38;29.50;95.10
8820;DHT22;4446;50.876;4.736;2022-07-29T14:23:05;29.40;95.50
8820;DHT22;4446;50.876;4.736;2022-07-29T14:25:33;29.20;96.00
8820;DHT22;4446;50.876;4.736;2022-07-29T14:28:00;29.10;96.10
8820;DHT22;4446;50.876;4.736;2022-07-29T14:30:27;28.90;96.30
8820;DHT22;4446;50.876;4.736;2022-07-29T14:32:55;28.70;96.30
8820;DHT22;4446;50.876;4.736;2022-07-29T14:35:22;28.60;96.10
8820;DHT22;4446;50.876;4.736;2022-07-29T14:37:49;28.40;96.20
8820;DHT22;4446;50.876;4.736;2022-07-29T14:40:16;28.00;96.50
8820;DHT22;4446;50.876;4.736;2022-07-29T14:42:44;27.70;96.70
8820;DHT22;4446;50.876;4.736;2022-07-29T14:45:11;27.40;96.70
8820;DHT22;4446;50.876;4.736;2022-07-29T14:47:38;27.30;97.30
8820;DHT22;4446;50.876;4.736;2022-07-29T14:50:06;27.20;96.90
8820;DHT22;4446;50.876;4.736;2022-07-29T14:52:34;27.20;97.00
8820;DHT22;4446;50.876;4.736;2022-07-29T14:55:01;27.00;97.20
8820;DHT22;4446;50.876;4.736;2022-07-29T14:57:28;27.10;97.10
8820;DHT22;4446;50.876;4.736;2022-07-29T14:59:57;27.20;97.40
8820;DHT22;4446;50.876;4.736;2022-07-29T15:02:25;27.00;97.40
8820;DHT22;4446;50.876;4.736;2022-07-29T15:04:52;27.10;98.10
8820;DHT22;4446;50.876;4.736;2022-07-29T15:07:19;27.10;97.50
8820;DHT22;4446;50.876;4.736;2022-07-29T15:09:46;27.30;97.30
8820;DHT22;4446;50.876;4.736;2022-07-29T15:12:13;27.40;97.20
8820;DHT22;4446;50.876;4.736;2022-07-29T15:14:41;27.40;97.10
8820;DHT22;4446;50.876;4.736;2022-07-29T15:17:09;27.80;96.90
8820;DHT22;4446;50.876;4.736;2022-07-29T15:19:36;28.90;96.50
8820;DHT22;4446;50.876;4.736;2022-07-29T15:22:04;30.10;95.00
8820;DHT22;4446;50.876;4.736;2022-07-29T15:24:31;30.80;93.80
8820;DHT22;4446;50.876;4.736;2022-07-29T15:26:58;31.00;93.70
8820;DHT22;4446;50.876;4.736;2022-07-29T15:29:25;31.40;93.00
8820;DHT22;4446;50.876;4.736;2022-07-29T15:31:52;31.70;92.60
8820;DHT22;4446;50.876;4.736;2022-07-29T15:34:21;32.20;92.20
8820;DHT22;4446;50.876;4.736;2022-07-29T15:36:49;32.70;91.30
8820;DHT22;4446;50.876;4.736;2022-07-29T15:39:16;33.40;91.00
8820;DHT22;4446;50.876;4.736;2022-07-29T15:41:43;33.80;90.40
8820;DHT22;4446;50.876;4.736;2022-07-29T15:44:11;33.60;87.70
8820;DHT22;4446;50.876;4.736;2022-07-29T15:46:38;33.00;88.10
8820;DHT22;4446;50.876;4.736;2022-07-29T15:49:23;33.10;87.90
8820;DHT22;4446;50.876;4.736;2022-07-29T15:51:56;33.40;87.60
8820;DHT22;4446;50.876;4.736;2022-07-29T15:54:24;33.70;86.70
8820;DHT22;4446;50.876;4.736;2022-07-29T15:56:51;32.90;86.30
8820;DHT22;4446;50.876;4.736;2022-07-29T15:59:18;33.00;86.80
8820;DHT22;4446;50.876;4.736;2022-07-29T16:01:45;32.90;86.00
8820;DHT22;4446;50.876;4.736;2022-07-29T16:04:12;33.20;85.20
8820;DHT22;4446;50.876;4.736;2022-07-29T16:06:40;33.20;84.60
8820;DHT22;4446;50.876;4.736;2022-07-29T16:09:07;33.10;85.90
8820;DHT22;4446;50.876;4.736;2022-07-29T16:11:35;33.10;84.90
8820;DHT22;4446;50.876;4.736;2022-07-29T16:14:02;33.20;84.20
8820;DHT22;4446;50.876;4.736;2022-07-29T16:16:29;33.00;84.00
8820;DHT22;4446;50.876;4.736;2022-07-29T16:18:57;33.00;83.90
8820;DHT22;4446;50.876;4.736;2022-07-29T16:21:24;33.30;85.20
8820;DHT22;4446;50.876;4.736;2022-07-29T16:23:52;33.60;84.90